JBU2584 KMCO-KJFK
Flight info
| Callsign | JBU2584 |
|---|---|
| Flight time | 2h 2m |
| Altitude | 35000 |
| Route | FATHE4 VIYAP Q87 JROSS DCT JOHAR Q109 DFENC DCT SAWED Q108 SIE CAMRN5 |
| Aircraft | A320/M-VGDW/C |
Departure
| Time | 2026-05-09 13:54 |
|---|---|
| Airport | Orlando International Airport (KMCO) |
Arrival
| Time | 2026-05-09 15:56 |
|---|---|
| Airport | John F. Kennedy International Airport (KJFK) |
| Time | Latitude | Longitude | Altitude | Speed | Heading |
|---|---|---|---|---|---|
| 2026-05-09 13:18 | 28.41486 | -81.31458 | 95 ft | 0 kts | 95° |
| 2026-05-09 13:37 | 28.41487 | -81.31478 | 95 ft | 4 kts | 94° |
| 2026-05-09 13:37 | 28.41489 | -81.31508 | 95 ft | 4 kts | 90° |
| 2026-05-09 13:37 | 28.41488 | -81.31527 | 95 ft | 2 kts | 60° |
| 2026-05-09 13:38 | 28.41480 | -81.31535 | 95 ft | 3 kts | 2° |
| 2026-05-09 13:38 | 28.41482 | -81.31535 | 95 ft | 4 kts | 5° |
| 2026-05-09 13:38 | 28.41496 | -81.31533 | 97 ft | 1 kts | 6° |
| 2026-05-09 13:38 | 28.41497 | -81.31533 | 97 ft | 0 kts | 6° |
| 2026-05-09 13:44 | 28.41520 | -81.31531 | 96 ft | 6 kts | 5° |
| 2026-05-09 13:44 | 28.41581 | -81.31525 | 94 ft | 10 kts | 359° |
| 2026-05-09 13:44 | 28.41638 | -81.31582 | 97 ft | 13 kts | 294° |
| 2026-05-09 13:44 | 28.41664 | -81.31665 | 98 ft | 9 kts | 278° |
| 2026-05-09 13:45 | 28.41681 | -81.31737 | 100 ft | 11 kts | 294° |
| 2026-05-09 13:45 | 28.41740 | -81.31792 | 99 ft | 12 kts | 351° |
| 2026-05-09 13:45 | 28.41832 | -81.31793 | 99 ft | 14 kts | 359° |
| 2026-05-09 13:45 | 28.41935 | -81.31793 | 98 ft | 15 kts | 360° |
| 2026-05-09 13:46 | 28.42045 | -81.31794 | 99 ft | 15 kts | 360° |
| 2026-05-09 13:46 | 28.42147 | -81.31786 | 99 ft | 15 kts | 5° |
| 2026-05-09 13:46 | 28.42240 | -81.31768 | 99 ft | 13 kts | 17° |
| 2026-05-09 13:46 | 28.42266 | -81.31676 | 98 ft | 14 kts | 89° |
| 2026-05-09 13:47 | 28.42267 | -81.31552 | 97 ft | 17 kts | 89° |
| 2026-05-09 13:47 | 28.42268 | -81.31417 | 96 ft | 18 kts | 89° |
| 2026-05-09 13:47 | 28.42267 | -81.31265 | 94 ft | 19 kts | 93° |
| 2026-05-09 13:47 | 28.42248 | -81.31114 | 94 ft | 20 kts | 101° |
| 2026-05-09 13:48 | 28.42234 | -81.30954 | 95 ft | 20 kts | 87° |
| 2026-05-09 13:48 | 28.42245 | -81.30802 | 95 ft | 20 kts | 85° |
| 2026-05-09 13:48 | 28.42255 | -81.30656 | 96 ft | 18 kts | 85° |
| 2026-05-09 13:48 | 28.42265 | -81.30505 | 94 ft | 20 kts | 85° |
| 2026-05-09 13:49 | 28.42274 | -81.30360 | 94 ft | 18 kts | 87° |
| 2026-05-09 13:49 | 28.42276 | -81.30217 | 94 ft | 17 kts | 89° |
| 2026-05-09 13:49 | 28.42278 | -81.30075 | 94 ft | 19 kts | 89° |
| 2026-05-09 13:49 | 28.42280 | -81.29929 | 94 ft | 17 kts | 89° |
| 2026-05-09 13:50 | 28.42251 | -81.29808 | 96 ft | 17 kts | 141° |
| 2026-05-09 13:50 | 28.42130 | -81.29791 | 95 ft | 18 kts | 179° |
| 2026-05-09 13:50 | 28.42002 | -81.29790 | 94 ft | 19 kts | 179° |
| 2026-05-09 13:50 | 28.41870 | -81.29788 | 94 ft | 19 kts | 179° |
| 2026-05-09 13:51 | 28.41742 | -81.29787 | 94 ft | 19 kts | 179° |
| 2026-05-09 13:51 | 28.41605 | -81.29786 | 94 ft | 20 kts | 179° |
| 2026-05-09 13:51 | 28.41472 | -81.29785 | 96 ft | 18 kts | 179° |
| 2026-05-09 13:51 | 28.41352 | -81.29783 | 94 ft | 17 kts | 179° |
| 2026-05-09 13:52 | 28.41230 | -81.29782 | 94 ft | 17 kts | 179° |
| 2026-05-09 13:52 | 28.41110 | -81.29781 | 96 ft | 18 kts | 179° |
| 2026-05-09 13:52 | 28.40982 | -81.29779 | 94 ft | 19 kts | 179° |
| 2026-05-09 13:52 | 28.40855 | -81.29777 | 97 ft | 14 kts | 173° |
| 2026-05-09 13:53 | 28.40820 | -81.29701 | 94 ft | 13 kts | 89° |
| 2026-05-09 13:53 | 28.40822 | -81.29590 | 93 ft | 14 kts | 84° |
| 2026-05-09 13:53 | 28.40893 | -81.29560 | 93 ft | 13 kts | 359° |
| 2026-05-09 13:53 | 28.41180 | -81.29563 | 98 ft | 80 kts | 359° |
| 2026-05-09 13:54 | 28.41971 | -81.29571 | 96 ft | 144 kts | 359° |
| 2026-05-09 13:54 | 28.43118 | -81.29583 | 337 ft | 176 kts | 0° |
| 2026-05-09 13:54 | 28.44385 | -81.29577 | 984 ft | 188 kts | 3° |
| 2026-05-09 13:54 | 28.45678 | -81.29135 | 1546 ft | 206 kts | 31° |
| 2026-05-09 13:55 | 28.46952 | -81.28210 | 1988 ft | 228 kts | 31° |
| 2026-05-09 13:55 | 28.48359 | -81.27270 | 2349 ft | 244 kts | 29° |
| 2026-05-09 13:55 | 28.49913 | -81.26273 | 2644 ft | 268 kts | 29° |
| 2026-05-09 13:55 | 28.51648 | -81.25381 | 3243 ft | 278 kts | 11° |
| 2026-05-09 13:56 | 28.53580 | -81.25162 | 4031 ft | 280 kts | 1° |
| 2026-05-09 13:56 | 28.55529 | -81.25087 | 4900 ft | 280 kts | 357° |
| 2026-05-09 13:56 | 28.57485 | -81.25139 | 5753 ft | 281 kts | 355° |
| 2026-05-09 13:56 | 28.59436 | -81.25327 | 6550 ft | 283 kts | 351° |
| 2026-05-09 13:57 | 28.61394 | -81.25628 | 7151 ft | 285 kts | 349° |
| 2026-05-09 13:57 | 28.63356 | -81.25953 | 7946 ft | 286 kts | 349° |
| 2026-05-09 13:57 | 28.65332 | -81.26259 | 8749 ft | 288 kts | 350° |
| 2026-05-09 13:57 | 28.67329 | -81.26549 | 9507 ft | 290 kts | 350° |
| 2026-05-09 13:58 | 28.69338 | -81.26829 | 10212 ft | 295 kts | 350° |
| 2026-05-09 13:58 | 28.71458 | -81.27124 | 10397 ft | 318 kts | 350° |
| 2026-05-09 13:58 | 28.73728 | -81.27438 | 10617 ft | 337 kts | 350° |
| 2026-05-09 13:58 | 28.76049 | -81.27756 | 11128 ft | 343 kts | 350° |
| 2026-05-09 13:59 | 28.78437 | -81.28080 | 11717 ft | 347 kts | 350° |
| 2026-05-09 13:59 | 28.80847 | -81.28406 | 12313 ft | 351 kts | 349° |
| 2026-05-09 13:59 | 28.83286 | -81.28737 | 12912 ft | 354 kts | 349° |
| 2026-05-09 13:59 | 28.85757 | -81.29049 | 13470 ft | 359 kts | 350° |
| 2026-05-09 14:00 | 28.88259 | -81.29293 | 13999 ft | 363 kts | 351° |
| 2026-05-09 14:00 | 28.89113 | -81.29365 | 14171 ft | 364 kts | 352° |
| 2026-05-09 14:00 | 28.93345 | -81.29687 | 15021 ft | 369 kts | 351° |
| 2026-05-09 14:00 | 28.95922 | -81.29878 | 15541 ft | 372 kts | 351° |
| 2026-05-09 14:01 | 28.98513 | -81.30077 | 16055 ft | 375 kts | 351° |
| 2026-05-09 14:01 | 29.01118 | -81.30302 | 16573 ft | 377 kts | 349° |
| 2026-05-09 14:01 | 29.03741 | -81.30574 | 17081 ft | 380 kts | 348° |
| 2026-05-09 14:01 | 29.06380 | -81.30877 | 17602 ft | 382 kts | 348° |
| 2026-05-09 14:02 | 29.09032 | -81.31191 | 18121 ft | 385 kts | 348° |
| 2026-05-09 14:02 | 29.11711 | -81.31501 | 18589 ft | 389 kts | 348° |
| 2026-05-09 14:02 | 29.14424 | -81.31737 | 19028 ft | 393 kts | 350° |
| 2026-05-09 14:02 | 29.16234 | -81.31855 | 19323 ft | 395 kts | 351° |
| 2026-05-09 14:03 | 29.19897 | -81.32045 | 19927 ft | 399 kts | 351° |
| 2026-05-09 14:03 | 29.22683 | -81.32175 | 20384 ft | 403 kts | 351° |
| 2026-05-09 14:03 | 29.25491 | -81.32313 | 20817 ft | 405 kts | 351° |
| 2026-05-09 14:03 | 29.28318 | -81.32466 | 21251 ft | 408 kts | 350° |
| 2026-05-09 14:04 | 29.31164 | -81.32631 | 21672 ft | 411 kts | 350° |
| 2026-05-09 14:04 | 29.34029 | -81.32804 | 22098 ft | 413 kts | 349° |
| 2026-05-09 14:04 | 29.36910 | -81.32980 | 22516 ft | 416 kts | 349° |
| 2026-05-09 14:04 | 29.39807 | -81.33159 | 22923 ft | 419 kts | 349° |
| 2026-05-09 14:05 | 29.41741 | -81.33280 | 23195 ft | 421 kts | 349° |
| 2026-05-09 14:05 | 29.44676 | -81.33461 | 23593 ft | 423 kts | 349° |
| 2026-05-09 14:05 | 29.47626 | -81.33639 | 23940 ft | 426 kts | 349° |
| 2026-05-09 14:05 | 29.50591 | -81.33817 | 24306 ft | 428 kts | 349° |
| 2026-05-09 14:06 | 29.53577 | -81.33998 | 24673 ft | 430 kts | 349° |
| 2026-05-09 14:06 | 29.56572 | -81.34181 | 25025 ft | 432 kts | 349° |
| 2026-05-09 14:06 | 29.59578 | -81.34362 | 25375 ft | 434 kts | 349° |
| 2026-05-09 14:06 | 29.62605 | -81.34542 | 25733 ft | 436 kts | 349° |
| 2026-05-09 14:07 | 29.65642 | -81.34723 | 26077 ft | 438 kts | 348° |
| 2026-05-09 14:07 | 29.68699 | -81.34900 | 26416 ft | 440 kts | 348° |
| 2026-05-09 14:07 | 29.71772 | -81.35076 | 26759 ft | 442 kts | 348° |
| 2026-05-09 14:07 | 29.74856 | -81.35255 | 27086 ft | 445 kts | 348° |
| 2026-05-09 14:08 | 29.77957 | -81.35433 | 27429 ft | 447 kts | 348° |
| 2026-05-09 14:08 | 29.81067 | -81.35613 | 27774 ft | 449 kts | 348° |
| 2026-05-09 14:08 | 29.84196 | -81.35795 | 28115 ft | 451 kts | 348° |
| 2026-05-09 14:08 | 29.87338 | -81.35975 | 28464 ft | 453 kts | 348° |
| 2026-05-09 14:09 | 29.90498 | -81.36153 | 28800 ft | 455 kts | 348° |
| 2026-05-09 14:09 | 29.93669 | -81.36330 | 29120 ft | 458 kts | 348° |
| 2026-05-09 14:09 | 29.96866 | -81.36509 | 29440 ft | 460 kts | 348° |
| 2026-05-09 14:09 | 30.00065 | -81.36691 | 29831 ft | 460 kts | 347° |
| 2026-05-09 14:10 | 30.06449 | -81.37052 | 30683 ft | 457 kts | 347° |
| 2026-05-09 14:10 | 30.09618 | -81.37231 | 31120 ft | 455 kts | 347° |
| 2026-05-09 14:10 | 30.12768 | -81.37412 | 31573 ft | 452 kts | 347° |
| 2026-05-09 14:11 | 30.15898 | -81.37593 | 32025 ft | 449 kts | 346° |
| 2026-05-09 14:11 | 30.18974 | -81.37769 | 32479 ft | 447 kts | 346° |
| 2026-05-09 14:11 | 30.22109 | -81.37947 | 32949 ft | 444 kts | 346° |
| 2026-05-09 14:11 | 30.25184 | -81.38121 | 33410 ft | 442 kts | 346° |
| 2026-05-09 14:12 | 30.28244 | -81.38297 | 33847 ft | 439 kts | 345° |
| 2026-05-09 14:12 | 30.31249 | -81.38475 | 34238 ft | 437 kts | 345° |
| 2026-05-09 14:12 | 30.34277 | -81.38655 | 34586 ft | 435 kts | 345° |
| 2026-05-09 14:12 | 30.37296 | -81.38833 | 34893 ft | 435 kts | 345° |
| 2026-05-09 14:13 | 30.40321 | -81.39012 | 34990 ft | 436 kts | 345° |
| 2026-05-09 14:15 | 30.64863 | -81.40335 | 35047 ft | 442 kts | 345° |
| 2026-05-09 14:15 | 30.71019 | -81.40660 | 35056 ft | 443 kts | 345° |
| 2026-05-09 14:16 | 30.77180 | -81.40991 | 35051 ft | 443 kts | 345° |
| 2026-05-09 14:16 | 30.83347 | -81.41327 | 35059 ft | 443 kts | 345° |
| 2026-05-09 14:17 | 30.89511 | -81.41666 | 35046 ft | 444 kts | 345° |
| 2026-05-09 14:17 | 30.95682 | -81.41987 | 35051 ft | 444 kts | 345° |
| 2026-05-09 14:18 | 31.01861 | -81.42311 | 35056 ft | 444 kts | 345° |
| 2026-05-09 14:18 | 31.08041 | -81.42637 | 35057 ft | 445 kts | 345° |
| 2026-05-09 14:19 | 31.14183 | -81.42971 | 35065 ft | 445 kts | 345° |
| 2026-05-09 14:19 | 31.20364 | -81.43310 | 35060 ft | 445 kts | 345° |
| 2026-05-09 14:19 | 31.23496 | -81.43265 | 35079 ft | 459 kts | 354° |
| 2026-05-09 14:20 | 31.26691 | -81.42552 | 35077 ft | 477 kts | 5° |
| 2026-05-09 14:20 | 31.29833 | -81.41113 | 35076 ft | 491 kts | 14° |
| 2026-05-09 14:20 | 31.32932 | -81.39416 | 35073 ft | 492 kts | 14° |
| 2026-05-09 14:21 | 31.42255 | -81.34330 | 35058 ft | 493 kts | 14° |
| 2026-05-09 14:21 | 31.48480 | -81.30956 | 35052 ft | 493 kts | 14° |
| 2026-05-09 14:22 | 31.54716 | -81.27570 | 35048 ft | 494 kts | 14° |
| 2026-05-09 14:22 | 31.60950 | -81.24178 | 35035 ft | 494 kts | 14° |
| 2026-05-09 14:23 | 31.67189 | -81.20770 | 35031 ft | 495 kts | 14° |
| 2026-05-09 14:23 | 31.73426 | -81.17355 | 35028 ft | 495 kts | 14° |
| 2026-05-09 14:24 | 31.79667 | -81.13937 | 35028 ft | 495 kts | 14° |
| 2026-05-09 14:24 | 31.85903 | -81.10521 | 35029 ft | 494 kts | 14° |
| 2026-05-09 14:25 | 31.92139 | -81.07104 | 35030 ft | 494 kts | 14° |
| 2026-05-09 14:25 | 31.98373 | -81.03679 | 35034 ft | 494 kts | 14° |
| 2026-05-09 14:26 | 32.04590 | -81.00237 | 35033 ft | 494 kts | 15° |
| 2026-05-09 14:26 | 32.10757 | -80.96773 | 35030 ft | 494 kts | 15° |
| 2026-05-09 14:27 | 32.17000 | -80.93268 | 35050 ft | 493 kts | 15° |
| 2026-05-09 14:27 | 32.23153 | -80.89811 | 35052 ft | 493 kts | 15° |
| 2026-05-09 14:28 | 32.29343 | -80.86343 | 35053 ft | 492 kts | 15° |
| 2026-05-09 14:28 | 32.35525 | -80.82865 | 35054 ft | 492 kts | 15° |
| 2026-05-09 14:29 | 32.41702 | -80.79382 | 35058 ft | 492 kts | 15° |
| 2026-05-09 14:29 | 32.47879 | -80.75895 | 35058 ft | 491 kts | 15° |
| 2026-05-09 14:30 | 32.54059 | -80.72400 | 35055 ft | 491 kts | 15° |
| 2026-05-09 14:30 | 32.60227 | -80.68905 | 35061 ft | 491 kts | 15° |
| 2026-05-09 14:31 | 32.66191 | -80.65520 | 35056 ft | 491 kts | 15° |
| 2026-05-09 14:31 | 32.72126 | -80.61280 | 35058 ft | 512 kts | 31° |
| 2026-05-09 14:32 | 32.77238 | -80.55234 | 35060 ft | 520 kts | 38° |
| 2026-05-09 14:32 | 32.82274 | -80.49056 | 35063 ft | 520 kts | 38° |
| 2026-05-09 14:33 | 32.87316 | -80.42875 | 35062 ft | 521 kts | 38° |
| 2026-05-09 14:33 | 32.92359 | -80.36685 | 35039 ft | 521 kts | 38° |
| 2026-05-09 14:34 | 32.97399 | -80.30482 | 35035 ft | 521 kts | 38° |
| 2026-05-09 14:34 | 33.02434 | -80.24266 | 35033 ft | 521 kts | 38° |
| 2026-05-09 14:35 | 33.07464 | -80.18036 | 35034 ft | 521 kts | 38° |
| 2026-05-09 14:35 | 33.12459 | -80.11844 | 35041 ft | 521 kts | 38° |
| 2026-05-09 14:36 | 33.17486 | -80.05607 | 35040 ft | 521 kts | 38° |
| 2026-05-09 14:36 | 33.22512 | -79.99356 | 35039 ft | 522 kts | 38° |
| 2026-05-09 14:37 | 33.27535 | -79.93097 | 35038 ft | 522 kts | 38° |
| 2026-05-09 14:37 | 33.32567 | -79.86834 | 35038 ft | 522 kts | 38° |
| 2026-05-09 14:38 | 33.37593 | -79.80560 | 35045 ft | 522 kts | 38° |
| 2026-05-09 14:38 | 33.42610 | -79.74279 | 35050 ft | 522 kts | 38° |
| 2026-05-09 14:39 | 33.47619 | -79.67988 | 35047 ft | 521 kts | 38° |
| 2026-05-09 14:39 | 33.52623 | -79.61702 | 35051 ft | 521 kts | 38° |
| 2026-05-09 14:40 | 33.57618 | -79.55414 | 35042 ft | 521 kts | 38° |
| 2026-05-09 14:40 | 33.62615 | -79.49119 | 35045 ft | 520 kts | 38° |
| 2026-05-09 14:41 | 33.67605 | -79.42831 | 35051 ft | 520 kts | 38° |
| 2026-05-09 14:41 | 33.72583 | -79.36517 | 35056 ft | 519 kts | 38° |
| 2026-05-09 14:42 | 33.77547 | -79.30214 | 35056 ft | 519 kts | 38° |
| 2026-05-09 14:42 | 33.82501 | -79.23917 | 35061 ft | 518 kts | 38° |
| 2026-05-09 14:43 | 33.87419 | -79.17662 | 35057 ft | 517 kts | 38° |
| 2026-05-09 14:43 | 33.92352 | -79.11377 | 35057 ft | 516 kts | 38° |
| 2026-05-09 14:44 | 33.97287 | -79.05081 | 35049 ft | 516 kts | 38° |
| 2026-05-09 14:44 | 34.02208 | -78.98791 | 35048 ft | 516 kts | 38° |
| 2026-05-09 14:45 | 34.07126 | -78.92493 | 35053 ft | 516 kts | 38° |
| 2026-05-09 14:45 | 34.12034 | -78.86188 | 35054 ft | 515 kts | 38° |
| 2026-05-09 14:46 | 34.16932 | -78.79880 | 35058 ft | 515 kts | 38° |
| 2026-05-09 14:46 | 34.21840 | -78.73562 | 35058 ft | 516 kts | 38° |
| 2026-05-09 14:47 | 34.26748 | -78.67230 | 35059 ft | 516 kts | 37° |
| 2026-05-09 14:47 | 34.31660 | -78.60885 | 35056 ft | 516 kts | 36° |
| 2026-05-09 14:48 | 34.34273 | -78.57998 | 35052 ft | 503 kts | 27° |
| 2026-05-09 14:48 | 34.37032 | -78.55394 | 35046 ft | 502 kts | 27° |
| 2026-05-09 14:48 | 34.41619 | -78.51068 | 35043 ft | 503 kts | 27° |
| 2026-05-09 14:49 | 34.47146 | -78.45840 | 35034 ft | 504 kts | 27° |
| 2026-05-09 14:49 | 34.52676 | -78.40603 | 35034 ft | 505 kts | 27° |
| 2026-05-09 14:50 | 34.58226 | -78.35339 | 35033 ft | 506 kts | 27° |
| 2026-05-09 14:50 | 34.63779 | -78.30064 | 35031 ft | 507 kts | 27° |
| 2026-05-09 14:51 | 34.69338 | -78.24763 | 35036 ft | 509 kts | 26° |
| 2026-05-09 14:51 | 34.74914 | -78.19439 | 35033 ft | 510 kts | 26° |
| 2026-05-09 14:52 | 34.80501 | -78.14099 | 35029 ft | 512 kts | 26° |
| 2026-05-09 14:52 | 34.86105 | -78.08729 | 35035 ft | 514 kts | 26° |
| 2026-05-09 14:53 | 34.91728 | -78.03349 | 35036 ft | 515 kts | 26° |
| 2026-05-09 14:53 | 34.97342 | -77.97986 | 35040 ft | 516 kts | 26° |
| 2026-05-09 14:54 | 35.03036 | -77.92551 | 35034 ft | 517 kts | 26° |
| 2026-05-09 14:54 | 35.08696 | -77.87117 | 35032 ft | 518 kts | 26° |
| 2026-05-09 14:55 | 35.14365 | -77.81658 | 35039 ft | 519 kts | 26° |
| 2026-05-09 14:55 | 35.20042 | -77.76192 | 35067 ft | 520 kts | 26° |
| 2026-05-09 14:56 | 35.25721 | -77.70713 | 35083 ft | 520 kts | 26° |
| 2026-05-09 14:56 | 35.31360 | -77.65268 | 35091 ft | 520 kts | 26° |
| 2026-05-09 14:57 | 35.37069 | -77.59744 | 35093 ft | 519 kts | 26° |
| 2026-05-09 14:57 | 35.42697 | -77.54288 | 35096 ft | 519 kts | 26° |
| 2026-05-09 14:58 | 35.48350 | -77.48791 | 35048 ft | 518 kts | 26° |
| 2026-05-09 14:58 | 35.53994 | -77.43297 | 35045 ft | 517 kts | 26° |
| 2026-05-09 14:59 | 35.59622 | -77.37807 | 35045 ft | 516 kts | 26° |
| 2026-05-09 14:59 | 35.65242 | -77.32314 | 35044 ft | 515 kts | 26° |
| 2026-05-09 15:00 | 35.70851 | -77.26825 | 35043 ft | 515 kts | 26° |
| 2026-05-09 15:00 | 35.76450 | -77.21346 | 35068 ft | 514 kts | 26° |
| 2026-05-09 15:01 | 35.84832 | -77.13097 | 35065 ft | 513 kts | 26° |
| 2026-05-09 15:02 | 35.90405 | -77.07591 | 35068 ft | 513 kts | 26° |
| 2026-05-09 15:02 | 35.93276 | -77.05088 | 35070 ft | 498 kts | 17° |
| 2026-05-09 15:02 | 35.96244 | -77.02931 | 35066 ft | 496 kts | 17° |
| 2026-05-09 15:03 | 36.02198 | -76.98604 | 35057 ft | 496 kts | 17° |
| 2026-05-09 15:03 | 36.08151 | -76.94260 | 35048 ft | 496 kts | 17° |
| 2026-05-09 15:04 | 36.14098 | -76.89925 | 35042 ft | 496 kts | 17° |
| 2026-05-09 15:06 | 36.37866 | -76.72472 | 35037 ft | 498 kts | 17° |
| 2026-05-09 15:06 | 36.43827 | -76.68081 | 35046 ft | 498 kts | 17° |
| 2026-05-09 15:07 | 36.49789 | -76.63668 | 35049 ft | 499 kts | 17° |
| 2026-05-09 15:07 | 36.55753 | -76.59240 | 35057 ft | 499 kts | 17° |
| 2026-05-09 15:08 | 36.61725 | -76.54813 | 35058 ft | 499 kts | 17° |
| 2026-05-09 15:08 | 36.70679 | -76.48155 | 35047 ft | 500 kts | 18° |
| 2026-05-09 15:10 | 36.94508 | -76.30349 | 35058 ft | 500 kts | 18° |
| 2026-05-09 15:11 | 37.00474 | -76.25872 | 35056 ft | 500 kts | 18° |
| 2026-05-09 15:11 | 37.06445 | -76.21378 | 35027 ft | 500 kts | 18° |
| 2026-05-09 15:12 | 37.12411 | -76.16881 | 35031 ft | 500 kts | 19° |
| 2026-05-09 15:12 | 37.18375 | -76.12382 | 35038 ft | 501 kts | 19° |
| 2026-05-09 15:13 | 37.24346 | -76.07870 | 35034 ft | 501 kts | 19° |
| 2026-05-09 15:13 | 37.30313 | -76.03352 | 35049 ft | 501 kts | 19° |
| 2026-05-09 15:14 | 37.36284 | -75.98826 | 35053 ft | 501 kts | 19° |
| 2026-05-09 15:14 | 37.42252 | -75.94290 | 35052 ft | 501 kts | 20° |
| 2026-05-09 15:15 | 37.47214 | -75.90513 | 35055 ft | 501 kts | 20° |
| 2026-05-09 15:15 | 37.54186 | -75.85189 | 35050 ft | 501 kts | 20° |
| 2026-05-09 15:16 | 37.60165 | -75.80680 | 35049 ft | 500 kts | 20° |
| 2026-05-09 15:16 | 37.66110 | -75.76250 | 35048 ft | 500 kts | 20° |
| 2026-05-09 15:17 | 37.72088 | -75.71780 | 35051 ft | 499 kts | 20° |
| 2026-05-09 15:17 | 37.78061 | -75.67298 | 35050 ft | 499 kts | 20° |
| 2026-05-09 15:18 | 37.84016 | -75.62810 | 35050 ft | 498 kts | 21° |
| 2026-05-09 15:18 | 37.89865 | -75.58014 | 35059 ft | 503 kts | 25° |
| 2026-05-09 15:19 | 37.95582 | -75.52888 | 35060 ft | 503 kts | 26° |
| 2026-05-09 15:19 | 38.01281 | -75.47753 | 35065 ft | 501 kts | 26° |
| 2026-05-09 15:20 | 38.09911 | -75.40344 | 35055 ft | 497 kts | 24° |
| 2026-05-09 15:21 | 38.15750 | -75.35686 | 35044 ft | 495 kts | 23° |
| 2026-05-09 15:21 | 38.21578 | -75.31040 | 35050 ft | 493 kts | 21° |
| 2026-05-09 15:21 | 38.24592 | -75.29071 | 35052 ft | 481 kts | 13° |
| 2026-05-09 15:22 | 38.27711 | -75.27702 | 35056 ft | 468 kts | 4° |
| 2026-05-09 15:22 | 38.34025 | -75.26251 | 35055 ft | 460 kts | 359° |
| 2026-05-09 15:23 | 38.40337 | -75.24941 | 35050 ft | 460 kts | 359° |
| 2026-05-09 15:23 | 38.46660 | -75.23611 | 35047 ft | 460 kts | 359° |
| 2026-05-09 15:24 | 38.52938 | -75.22278 | 35018 ft | 460 kts | 359° |
| 2026-05-09 15:24 | 38.59261 | -75.20947 | 35013 ft | 460 kts | 359° |
| 2026-05-09 15:25 | 38.65589 | -75.19624 | 35012 ft | 461 kts | 0° |
| 2026-05-09 15:25 | 38.68735 | -75.18623 | 35007 ft | 473 kts | 11° |
| 2026-05-09 15:25 | 38.71782 | -75.16899 | 35007 ft | 485 kts | 22° |
| 2026-05-09 15:26 | 38.77339 | -75.11771 | 34969 ft | 496 kts | 31° |
| 2026-05-09 15:26 | 38.80077 | -75.09078 | 34735 ft | 495 kts | 31° |
| 2026-05-09 15:26 | 38.82809 | -75.06399 | 34249 ft | 494 kts | 31° |
| 2026-05-09 15:26 | 38.85538 | -75.03725 | 33655 ft | 494 kts | 31° |
| 2026-05-09 15:27 | 38.88256 | -75.01058 | 33096 ft | 491 kts | 31° |
| 2026-05-09 15:27 | 38.90963 | -74.98395 | 32544 ft | 489 kts | 32° |
| 2026-05-09 15:27 | 38.93657 | -74.95745 | 31973 ft | 487 kts | 32° |
| 2026-05-09 15:27 | 38.96346 | -74.93101 | 31412 ft | 485 kts | 32° |
| 2026-05-09 15:28 | 38.99014 | -74.90471 | 30854 ft | 483 kts | 32° |
| 2026-05-09 15:28 | 39.01681 | -74.87834 | 30299 ft | 482 kts | 33° |
| 2026-05-09 15:28 | 39.04327 | -74.85214 | 29706 ft | 480 kts | 33° |
| 2026-05-09 15:28 | 39.06959 | -74.82604 | 29169 ft | 475 kts | 33° |
| 2026-05-09 15:29 | 39.09566 | -74.80016 | 28657 ft | 471 kts | 33° |
| 2026-05-09 15:29 | 39.12116 | -74.77406 | 28189 ft | 466 kts | 35° |
| 2026-05-09 15:29 | 39.14598 | -74.74760 | 27726 ft | 462 kts | 36° |
| 2026-05-09 15:29 | 39.17035 | -74.72092 | 27266 ft | 457 kts | 36° |
| 2026-05-09 15:30 | 39.19434 | -74.69439 | 26822 ft | 452 kts | 37° |
| 2026-05-09 15:30 | 39.21812 | -74.66816 | 26393 ft | 448 kts | 36° |
| 2026-05-09 15:30 | 39.24178 | -74.64225 | 25967 ft | 444 kts | 36° |
| 2026-05-09 15:30 | 39.26525 | -74.61673 | 25512 ft | 440 kts | 36° |
| 2026-05-09 15:31 | 39.28862 | -74.59144 | 25164 ft | 435 kts | 36° |
| 2026-05-09 15:31 | 39.31174 | -74.56645 | 24771 ft | 432 kts | 36° |
| 2026-05-09 15:31 | 39.33480 | -74.54150 | 24301 ft | 432 kts | 36° |
| 2026-05-09 15:31 | 39.35777 | -74.51660 | 23816 ft | 432 kts | 36° |
| 2026-05-09 15:32 | 39.38077 | -74.49164 | 23276 ft | 432 kts | 36° |
| 2026-05-09 15:32 | 39.40372 | -74.46669 | 22779 ft | 429 kts | 36° |
| 2026-05-09 15:32 | 39.42645 | -74.44191 | 22319 ft | 425 kts | 36° |
| 2026-05-09 15:32 | 39.44899 | -74.41726 | 21851 ft | 422 kts | 36° |
| 2026-05-09 15:33 | 39.46379 | -74.40107 | 21540 ft | 420 kts | 36° |
| 2026-05-09 15:33 | 39.48605 | -74.37673 | 21078 ft | 417 kts | 36° |
| 2026-05-09 15:33 | 39.50816 | -74.35254 | 20606 ft | 414 kts | 36° |
| 2026-05-09 15:33 | 39.53009 | -74.32852 | 20137 ft | 412 kts | 36° |
| 2026-05-09 15:34 | 39.55185 | -74.30464 | 19678 ft | 409 kts | 36° |
| 2026-05-09 15:34 | 39.57354 | -74.28086 | 19200 ft | 406 kts | 36° |
| 2026-05-09 15:34 | 39.59503 | -74.25730 | 18757 ft | 403 kts | 36° |
| 2026-05-09 15:34 | 39.61636 | -74.23387 | 18337 ft | 400 kts | 36° |
| 2026-05-09 15:35 | 39.63748 | -74.21067 | 17872 ft | 396 kts | 36° |
| 2026-05-09 15:35 | 39.65837 | -74.18771 | 17456 ft | 391 kts | 36° |
| 2026-05-09 15:35 | 39.67897 | -74.16504 | 17056 ft | 386 kts | 36° |
| 2026-05-09 15:35 | 39.69939 | -74.14252 | 16646 ft | 383 kts | 36° |
| 2026-05-09 15:36 | 39.71958 | -74.12026 | 16244 ft | 380 kts | 37° |
| 2026-05-09 15:36 | 39.73964 | -74.09811 | 15841 ft | 376 kts | 37° |
| 2026-05-09 15:36 | 39.75949 | -74.07614 | 15441 ft | 374 kts | 37° |
| 2026-05-09 15:36 | 39.77920 | -74.05429 | 15049 ft | 372 kts | 38° |
| 2026-05-09 15:37 | 39.79885 | -74.03257 | 14648 ft | 370 kts | 38° |
| 2026-05-09 15:37 | 39.81842 | -74.01095 | 14249 ft | 368 kts | 38° |
| 2026-05-09 15:37 | 39.83806 | -73.98976 | 13875 ft | 366 kts | 33° |
| 2026-05-09 15:37 | 39.85969 | -73.97286 | 13452 ft | 361 kts | 25° |
| 2026-05-09 15:38 | 39.88171 | -73.95744 | 13098 ft | 357 kts | 25° |
| 2026-05-09 15:38 | 39.90320 | -73.94222 | 12964 ft | 347 kts | 25° |
| 2026-05-09 15:38 | 39.92384 | -73.92750 | 12811 ft | 338 kts | 25° |
| 2026-05-09 15:38 | 39.94462 | -73.91268 | 12521 ft | 334 kts | 25° |
| 2026-05-09 15:39 | 39.96495 | -73.89819 | 12210 ft | 332 kts | 26° |
| 2026-05-09 15:39 | 39.98515 | -73.88383 | 11887 ft | 330 kts | 26° |
| 2026-05-09 15:39 | 40.00504 | -73.86973 | 11570 ft | 328 kts | 26° |
| 2026-05-09 15:39 | 40.02468 | -73.85473 | 11254 ft | 327 kts | 28° |
| 2026-05-09 15:40 | 40.04429 | -73.83991 | 11015 ft | 323 kts | 27° |
| 2026-05-09 15:40 | 40.06389 | -73.82540 | 11006 ft | 325 kts | 27° |
| 2026-05-09 15:40 | 40.08360 | -73.81089 | 11011 ft | 326 kts | 27° |
| 2026-05-09 15:40 | 40.10333 | -73.79637 | 10882 ft | 324 kts | 27° |
| 2026-05-09 15:41 | 40.12297 | -73.78197 | 10562 ft | 323 kts | 27° |
| 2026-05-09 15:41 | 40.14257 | -73.76774 | 10247 ft | 321 kts | 27° |
| 2026-05-09 15:41 | 40.16211 | -73.75370 | 9950 ft | 320 kts | 27° |
| 2026-05-09 15:41 | 40.18164 | -73.73983 | 9606 ft | 318 kts | 27° |
| 2026-05-09 15:42 | 40.20105 | -73.72607 | 9284 ft | 317 kts | 27° |
| 2026-05-09 15:42 | 40.22042 | -73.71233 | 9002 ft | 316 kts | 27° |
| 2026-05-09 15:42 | 40.23970 | -73.69866 | 8720 ft | 315 kts | 27° |
| 2026-05-09 15:42 | 40.25893 | -73.68504 | 8388 ft | 313 kts | 27° |
| 2026-05-09 15:43 | 40.27807 | -73.67150 | 8070 ft | 312 kts | 27° |
| 2026-05-09 15:43 | 40.29716 | -73.65798 | 7769 ft | 310 kts | 27° |
| 2026-05-09 15:43 | 40.31614 | -73.64453 | 7436 ft | 309 kts | 27° |
| 2026-05-09 15:43 | 40.33503 | -73.63117 | 7127 ft | 308 kts | 27° |
| 2026-05-09 15:44 | 40.35380 | -73.61786 | 6830 ft | 306 kts | 27° |
| 2026-05-09 15:44 | 40.37238 | -73.60469 | 6519 ft | 305 kts | 27° |
| 2026-05-09 15:44 | 40.39102 | -73.59144 | 6218 ft | 304 kts | 27° |
| 2026-05-09 15:44 | 40.40955 | -73.57826 | 5906 ft | 302 kts | 27° |
| 2026-05-09 15:45 | 40.42800 | -73.56504 | 5588 ft | 301 kts | 27° |
| 2026-05-09 15:45 | 40.44634 | -73.55187 | 5269 ft | 300 kts | 27° |
| 2026-05-09 15:45 | 40.46439 | -73.53882 | 4947 ft | 300 kts | 27° |
| 2026-05-09 15:45 | 40.48259 | -73.52563 | 4638 ft | 298 kts | 27° |
| 2026-05-09 15:46 | 40.50079 | -73.51229 | 4424 ft | 300 kts | 27° |
| 2026-05-09 15:46 | 40.51902 | -73.49887 | 4299 ft | 301 kts | 27° |
| 2026-05-09 15:46 | 40.53744 | -73.48525 | 4163 ft | 306 kts | 28° |
| 2026-05-09 15:46 | 40.55611 | -73.47174 | 4019 ft | 304 kts | 27° |
| 2026-05-09 15:47 | 40.57439 | -73.45876 | 4010 ft | 296 kts | 21° |
| 2026-05-09 15:47 | 40.59412 | -73.45348 | 4014 ft | 287 kts | 353° |
| 2026-05-09 15:47 | 40.61394 | -73.45547 | 4014 ft | 284 kts | 348° |
| 2026-05-09 15:47 | 40.63357 | -73.45846 | 4018 ft | 284 kts | 347° |
| 2026-05-09 15:48 | 40.65321 | -73.46164 | 4020 ft | 284 kts | 347° |
| 2026-05-09 15:48 | 40.67276 | -73.46479 | 4019 ft | 284 kts | 347° |
| 2026-05-09 15:48 | 40.69243 | -73.46788 | 4019 ft | 285 kts | 347° |
| 2026-05-09 15:48 | 40.71201 | -73.47106 | 4018 ft | 283 kts | 347° |
| 2026-05-09 15:49 | 40.73158 | -73.47424 | 4021 ft | 283 kts | 347° |
| 2026-05-09 15:49 | 40.75106 | -73.47745 | 4019 ft | 281 kts | 345° |
| 2026-05-09 15:49 | 40.76880 | -73.48587 | 4014 ft | 260 kts | 318° |
| 2026-05-09 15:49 | 40.78009 | -73.50234 | 3928 ft | 230 kts | 288° |
| 2026-05-09 15:50 | 40.78504 | -73.52120 | 3786 ft | 207 kts | 278° |
| 2026-05-09 15:50 | 40.78859 | -73.53931 | 3439 ft | 201 kts | 278° |
| 2026-05-09 15:50 | 40.79186 | -73.55716 | 2991 ft | 200 kts | 277° |
| 2026-05-09 15:50 | 40.79502 | -73.57456 | 2798 ft | 187 kts | 277° |
| 2026-05-09 15:51 | 40.79613 | -73.59053 | 2661 ft | 165 kts | 251° |
| 2026-05-09 15:51 | 40.79173 | -73.60398 | 2454 ft | 157 kts | 239° |
| 2026-05-09 15:51 | 40.78613 | -73.61647 | 2075 ft | 159 kts | 237° |
| 2026-05-09 15:51 | 40.78043 | -73.62871 | 2015 ft | 157 kts | 237° |
| 2026-05-09 15:52 | 40.76963 | -73.65181 | 2010 ft | 143 kts | 237° |
| 2026-05-09 15:52 | 40.76357 | -73.66210 | 2002 ft | 143 kts | 215° |
| 2026-05-09 15:52 | 40.75460 | -73.66813 | 2003 ft | 145 kts | 215° |
| 2026-05-09 15:53 | 40.74613 | -73.67530 | 2004 ft | 144 kts | 214° |
| 2026-05-09 15:53 | 40.73763 | -73.68223 | 2020 ft | 142 kts | 214° |
| 2026-05-09 15:53 | 40.72911 | -73.68903 | 1912 ft | 143 kts | 213° |
| 2026-05-09 15:53 | 40.72060 | -73.69576 | 1755 ft | 141 kts | 213° |
| 2026-05-09 15:54 | 40.71230 | -73.70229 | 1577 ft | 137 kts | 212° |
| 2026-05-09 15:54 | 40.70416 | -73.70868 | 1395 ft | 136 kts | 212° |
| 2026-05-09 15:54 | 40.69612 | -73.71499 | 1219 ft | 135 kts | 212° |
| 2026-05-09 15:54 | 40.68809 | -73.72129 | 1038 ft | 134 kts | 211° |
| 2026-05-09 15:55 | 40.68042 | -73.72730 | 853 ft | 133 kts | 210° |
| 2026-05-09 15:55 | 40.67239 | -73.73359 | 675 ft | 135 kts | 209° |
| 2026-05-09 15:55 | 40.66444 | -73.73983 | 487 ft | 136 kts | 208° |
| 2026-05-09 15:55 | 40.65629 | -73.74639 | 336 ft | 138 kts | 207° |
| 2026-05-09 15:56 | 40.64804 | -73.75275 | 147 ft | 138 kts | 207° |
| 2026-05-09 15:56 | 40.63988 | -73.75907 | 23 ft | 127 kts | 209° |
| 2026-05-09 15:56 | 40.63358 | -73.76397 | 19 ft | 80 kts | 211° |
| 2026-05-09 15:56 | 40.63077 | -73.76631 | 17 ft | 38 kts | 221° |
| 2026-05-09 15:57 | 40.62946 | -73.76851 | 18 ft | 22 kts | 240° |
| 2026-05-09 15:57 | 40.62940 | -73.76994 | 17 ft | 12 kts | 298° |
| 2026-05-09 15:57 | 40.63002 | -73.77041 | 16 ft | 12 kts | 17° |
| 2026-05-09 15:57 | 40.63088 | -73.76981 | 16 ft | 16 kts | 25° |
| 2026-05-09 15:58 | 40.63211 | -73.76948 | 16 ft | 17 kts | 0° |
| 2026-05-09 15:58 | 40.63331 | -73.76945 | 16 ft | 15 kts | 2° |
| 2026-05-09 15:58 | 40.63443 | -73.76932 | 15 ft | 17 kts | 7° |
| 2026-05-09 15:58 | 40.63570 | -73.76919 | 16 ft | 18 kts | 1° |
| 2026-05-09 15:59 | 40.63691 | -73.76917 | 15 ft | 18 kts | 1° |
| 2026-05-09 15:59 | 40.63819 | -73.76915 | 16 ft | 19 kts | 1° |
| 2026-05-09 15:59 | 40.63950 | -73.76913 | 16 ft | 18 kts | 0° |
| 2026-05-09 15:59 | 40.64080 | -73.76904 | 16 ft | 18 kts | 6° |
| 2026-05-09 16:00 | 40.64210 | -73.76887 | 17 ft | 18 kts | 2° |
| 2026-05-09 16:00 | 40.64251 | -73.76885 | 17 ft | 18 kts | 1° |
| 2026-05-09 16:00 | 40.64429 | -73.76975 | 16 ft | 15 kts | 336° |
| 2026-05-09 16:00 | 40.64461 | -73.76988 | 16 ft | 15 kts | 350° |
| 2026-05-09 16:01 | 40.64655 | -73.76992 | 16 ft | 17 kts | 349° |
| 2026-05-09 16:01 | 40.64760 | -73.77072 | 17 ft | 18 kts | 314° |